Meroney, Arkansas
Current Conditions -  °F | °C
As of 3:53 AM on Sunday 25 Jan 2015 (Local Time) from KPBF Reporting Station
Clear Clear  
Wind Chill: 35°   Ceiling: Unl
Heat Index: 42°   Visibility: 10mi
Dew Point: 34°   Wind: 13mph
Humidity: 73%   Direction: 230°SW
Pressure: 29.87"   Gusts: NA
Location:  34.0297°N, 91.5376°W
Report Text: KPBF 250953Z AUTO 23011KT 10SM CLR 06/01 A2987 RMK AO2 SLP113 T00560011
Loading
Personal Weather Stations






























Interactive Weather Map New forecast layout! Learn more

10-Day Weather Forecast

Advertisements
Track Severe Weather on mobile